createdAt,value
2019-01-16T00:02:04.900Z,9.07
2019-01-16T00:04:40.619Z,8.43
2019-01-16T00:07:15.830Z,8.98
2019-01-16T00:09:39.440Z,10.38
2019-01-16T00:12:24.610Z,9.33
2019-01-16T00:14:38.693Z,10.07
2019-01-16T00:17:13.589Z,10.00
2019-01-16T00:19:43.398Z,8.33
2019-01-16T00:22:13.415Z,9.75
2019-01-16T00:24:48.605Z,8.10
2019-01-16T00:27:24.253Z,8.10
2019-01-16T00:29:54.677Z,7.67
2019-01-16T00:32:29.740Z,9.83
2019-01-16T00:35:04.313Z,9.37
2019-01-16T00:37:39.581Z,7.70
2019-01-16T00:42:59.666Z,7.27
2019-01-16T00:45:34.693Z,7.03
2019-01-16T00:48:02.041Z,8.55
2019-01-16T00:50:37.662Z,6.53
2019-01-16T00:53:15.573Z,7.45
2019-01-16T00:55:50.078Z,7.30
2019-01-16T00:58:27.997Z,7.17
2019-01-16T01:01:03.476Z,7.00
2019-01-16T01:03:38.769Z,6.80
2019-01-16T01:08:58.934Z,7.53
2019-01-16T01:11:34.429Z,6.10
2019-01-16T01:14:09.766Z,7.10
2019-01-16T01:16:38.450Z,6.85
2019-01-16T01:19:31.782Z,5.50
2019-01-16T01:24:33.069Z,6.80
2019-01-16T01:27:08.129Z,6.97
2019-01-16T01:29:35.535Z,7.17
2019-01-16T01:32:12.665Z,7.60
2019-01-16T01:34:51.064Z,6.15
2019-01-16T01:37:25.792Z,6.33
2019-01-16T01:40:00.572Z,8.37
2019-01-16T01:42:35.214Z,6.93
2019-01-16T01:45:07.422Z,7.63
2019-01-16T01:47:47.267Z,7.20
2019-01-16T01:50:09.184Z,7.37
2019-01-16T01:52:44.802Z,8.45
2019-01-16T01:55:19.937Z,8.53
2019-01-16T01:57:55.257Z,8.97
2019-01-16T02:00:30.721Z,6.37
2019-01-16T02:03:03.754Z,8.57
2019-01-16T02:05:38.611Z,7.53
2019-01-16T02:08:06.255Z,9.37
2019-01-16T02:10:29.361Z,9.03
2019-01-16T02:13:10.565Z,8.13
2019-01-16T02:15:46.196Z,9.53
2019-01-16T02:18:13.981Z,8.03
2019-01-16T02:20:48.910Z,10.53
2019-01-16T02:23:24.461Z,8.87
2019-01-16T02:26:00.046Z,9.05
2019-01-16T02:28:38.333Z,7.93
2019-01-16T02:31:13.531Z,8.33
2019-01-16T02:39:06.766Z,11.30
2019-01-16T02:41:42.077Z,8.57
2019-01-16T02:44:11.791Z,10.07
2019-01-16T02:46:46.591Z,9.70
2019-01-16T02:49:21.716Z,9.67
2019-01-16T02:51:57.162Z,8.10
2019-01-16T02:54:32.514Z,10.27
2019-01-16T02:57:13.949Z,10.10
2019-01-16T02:59:49.652Z,10.73
2019-01-16T03:02:25.216Z,10.43
2019-01-16T03:05:00.448Z,11.50
2019-01-16T03:07:24.349Z,11.43
2019-01-16T03:09:54.140Z,8.83
2019-01-16T03:15:14.955Z,10.17
2019-01-16T03:20:40.040Z,9.70
2019-01-16T03:23:15.483Z,10.87
2019-01-16T03:25:38.033Z,10.50
2019-01-16T03:28:13.697Z,12.80
2019-01-16T03:30:49.203Z,9.13
2019-01-16T03:33:12.029Z,10.20
2019-01-16T03:35:49.644Z,11.40
2019-01-16T03:38:27.996Z,10.57
2019-01-16T03:43:36.813Z,13.83
2019-01-16T03:46:07.301Z,13.20
2019-01-16T03:48:32.712Z,11.07
2019-01-16T03:51:08.138Z,11.40
2019-01-16T03:53:39.058Z,11.00
2019-01-16T03:56:17.117Z,10.72
2019-01-16T03:58:52.626Z,12.43
2019-01-16T04:01:28.051Z,11.33
2019-01-16T04:03:55.437Z,12.10
2019-01-16T04:06:30.297Z,10.30
2019-01-16T04:09:04.890Z,12.50
2019-01-16T04:11:32.853Z,11.17
2019-01-16T04:14:01.133Z,10.50
2019-01-16T04:16:31.792Z,12.23
2019-01-16T04:19:12.467Z,10.13
2019-01-16T04:21:46.151Z,10.20
2019-01-16T04:24:20.976Z,11.78
2019-01-16T04:26:58.357Z,8.00
2019-01-16T04:29:33.817Z,10.00
2019-01-16T04:32:04.029Z,9.18
2019-01-16T04:34:38.749Z,9.20
2019-01-16T04:37:14.136Z,11.68
2019-01-16T04:39:49.304Z,10.60
2019-01-16T04:42:24.890Z,10.15
2019-01-16T04:44:59.479Z,8.17
2019-01-16T04:47:34.488Z,9.70
2019-01-16T04:50:09.517Z,10.28
2019-01-16T04:52:38.873Z,8.30
2019-01-16T04:55:14.036Z,11.95
2019-01-16T04:57:52.552Z,10.07
2019-01-16T05:00:27.695Z,10.97
2019-01-16T05:03:03.153Z,10.50
2019-01-16T05:05:38.337Z,12.57
2019-01-16T05:08:13.935Z,12.65
2019-01-16T05:10:48.881Z,10.43
2019-01-16T05:13:17.993Z,9.63
2019-01-16T05:15:52.545Z,10.87
2019-01-16T05:18:28.127Z,10.97
2019-01-16T05:21:03.616Z,11.13
2019-01-16T05:23:38.640Z,9.80
2019-01-16T05:26:10.328Z,12.60
2019-01-16T05:28:53.231Z,13.83
2019-01-16T05:31:35.813Z,10.80
2019-01-16T05:34:18.296Z,12.50
2019-01-16T05:36:53.060Z,10.80
2019-01-16T05:39:24.316Z,10.25
2019-01-16T05:42:06.702Z,13.93
2019-01-16T05:44:49.567Z,12.50
2019-01-16T05:47:29.645Z,15.63
2019-01-16T05:50:12.403Z,11.70
2019-01-16T05:52:54.549Z,16.70
2019-01-16T05:55:36.780Z,13.50
2019-01-16T05:58:19.294Z,14.23
2019-01-16T06:01:02.223Z,13.37
2019-01-16T06:03:43.964Z,13.93
2019-01-16T06:06:26.250Z,15.13
2019-01-16T06:09:09.317Z,12.33
2019-01-16T06:11:51.943Z,13.63
2019-01-16T06:14:34.497Z,18.20
2019-01-16T06:17:16.614Z,15.20
2019-01-16T06:19:58.841Z,16.83
2019-01-16T06:22:40.974Z,15.70
2019-01-16T06:25:16.302Z,13.70
2019-01-16T06:27:49.296Z,10.77
2019-01-16T06:30:29.945Z,16.95
2019-01-16T06:33:05.541Z,16.00
2019-01-16T06:35:41.137Z,16.02
2019-01-16T06:38:16.197Z,15.50
2019-01-16T06:40:41.924Z,17.20
2019-01-16T06:43:17.255Z,16.40
2019-01-16T06:45:52.504Z,19.50
2019-01-16T06:48:27.856Z,17.50
2019-01-16T06:50:54.408Z,18.50
2019-01-16T06:53:29.453Z,22.40
2019-01-16T06:58:42.224Z,23.70
2019-01-16T07:06:30.313Z,17.30
2019-01-16T07:09:08.780Z,23.40
2019-01-16T07:11:44.041Z,18.87
2019-01-16T07:14:19.552Z,22.27
2019-01-16T07:16:53.034Z,21.75
2019-01-16T07:19:28.273Z,21.50
2019-01-16T07:22:03.161Z,16.60
2019-01-16T07:24:38.622Z,23.93
2019-01-16T07:27:11.749Z,18.50
2019-01-16T07:29:47.279Z,20.93
2019-01-16T07:34:48.564Z,23.40
2019-01-16T07:37:14.375Z,23.15
2019-01-16T07:39:49.600Z,21.23
2019-01-16T07:42:22.417Z,23.47
2019-01-16T07:45:03.572Z,21.07
2019-01-16T07:52:37.078Z,24.27
2019-01-16T07:55:08.756Z,20.27
2019-01-16T07:57:43.518Z,17.37
2019-01-16T08:00:18.824Z,17.07
2019-01-16T08:05:40.122Z,18.00
2019-01-16T08:08:15.526Z,16.30
2019-01-16T08:10:51.170Z,19.03
2019-01-16T08:13:26.647Z,17.17
2019-01-16T08:16:05.185Z,17.65
2019-01-16T08:18:31.357Z,17.60
2019-01-16T08:21:06.155Z,18.10
2019-01-16T08:23:46.964Z,16.50
2019-01-16T08:26:21.664Z,15.70
2019-01-16T08:28:57.219Z,15.33
2019-01-16T08:31:27.109Z,15.00
2019-01-16T08:34:05.469Z,13.17
2019-01-16T08:36:40.802Z,12.73
2019-01-16T08:39:16.123Z,13.88
2019-01-16T08:41:50.816Z,15.07
2019-01-16T08:44:18.809Z,10.03
2019-01-16T08:46:54.330Z,14.57
2019-01-16T08:49:10.615Z,13.88
2019-01-16T08:51:46.062Z,12.13
2019-01-16T08:54:20.796Z,12.13
2019-01-16T08:56:45.831Z,13.63
2019-01-16T08:59:21.577Z,11.80
2019-01-16T09:02:03.019Z,13.07
2019-01-16T09:04:38.286Z,11.68
2019-01-16T09:07:19.694Z,10.37
2019-01-16T09:09:52.804Z,10.00
2019-01-16T09:12:27.791Z,12.23
2019-01-16T09:15:09.035Z,9.63
2019-01-16T09:17:34.981Z,10.07
2019-01-16T09:20:10.233Z,10.10
2019-01-16T09:22:43.000Z,10.83
2019-01-16T09:25:24.270Z,10.90
2019-01-16T09:27:59.702Z,11.63
2019-01-16T09:33:15.314Z,10.63
2019-01-16T09:35:50.593Z,9.20
2019-01-16T09:38:26.121Z,10.20
2019-01-16T09:43:40.477Z,11.18
2019-01-16T09:46:23.038Z,10.13
2019-01-16T09:49:05.222Z,9.30
2019-01-16T09:51:47.331Z,7.60
2019-01-16T09:54:29.653Z,10.23
2019-01-16T09:57:12.557Z,10.48
2019-01-16T09:59:54.797Z,9.57
2019-01-16T10:02:37.275Z,9.35
2019-01-16T10:05:19.686Z,9.03
2019-01-16T10:08:02.449Z,9.40
2019-01-16T10:10:44.937Z,9.63
2019-01-16T10:13:27.756Z,9.67
2019-01-16T10:16:10.646Z,8.80
2019-01-16T10:18:53.108Z,8.88
2019-01-16T10:21:35.939Z,10.40
2019-01-16T10:24:18.363Z,10.50
2019-01-16T10:27:00.858Z,10.90
2019-01-16T10:29:43.774Z,9.47
2019-01-16T10:32:26.193Z,9.13
2019-01-16T10:35:08.941Z,9.83
2019-01-16T10:37:51.416Z,9.50
2019-01-16T10:40:34.301Z,10.80
2019-01-16T10:43:17.143Z,12.10
2019-01-16T10:46:00.002Z,11.50
2019-01-16T10:48:49.511Z,10.53
2019-01-16T10:51:26.629Z,12.43
2019-01-16T10:54:09.046Z,12.78
2019-01-16T10:56:42.653Z,12.70
2019-01-16T10:59:25.366Z,12.00
2019-01-16T11:02:07.805Z,13.20
2019-01-16T11:04:50.633Z,15.70
2019-01-16T11:07:21.762Z,13.07
2019-01-16T11:10:04.229Z,14.73
2019-01-16T11:12:46.662Z,12.10
2019-01-16T11:15:29.188Z,13.43
2019-01-16T11:18:11.675Z,13.13
2019-01-16T11:20:54.121Z,13.40
2019-01-16T11:23:36.554Z,13.98
2019-01-16T11:26:19.532Z,15.70
2019-01-16T11:28:54.866Z,12.87
2019-01-16T11:34:09.892Z,15.60
2019-01-16T11:36:46.605Z,12.37
2019-01-16T11:39:21.674Z,15.47
2019-01-16T11:44:14.415Z,15.70
2019-01-16T11:46:40.025Z,13.70
2019-01-16T11:49:15.506Z,16.33
2019-01-16T12:05:48.751Z,16.20
2019-01-16T12:08:27.211Z,17.13
2019-01-16T12:11:02.535Z,14.90
2019-01-16T12:13:32.292Z,14.38
2019-01-16T12:16:00.877Z,11.67
2019-01-16T12:18:36.342Z,13.70
2019-01-16T12:21:00.791Z,14.03
2019-01-16T12:23:36.229Z,12.50
2019-01-16T12:26:12.003Z,13.43
2019-01-16T12:28:39.053Z,16.37
2019-01-16T12:31:14.513Z,13.20
2019-01-16T12:33:50.053Z,11.80
2019-01-16T12:36:18.102Z,14.60
2019-01-16T12:38:53.209Z,11.57
2019-01-16T12:41:20.008Z,11.50
2019-01-16T12:44:00.897Z,17.48
2019-01-16T12:46:36.286Z,13.30
2019-01-16T12:49:07.253Z,13.93
2019-01-16T12:51:33.955Z,11.87
2019-01-16T12:54:13.741Z,14.80
2019-01-16T12:56:43.943Z,10.97
2019-01-16T12:59:19.120Z,13.62
2019-01-16T13:01:54.359Z,12.23
2019-01-16T13:04:29.669Z,11.80
2019-01-16T13:06:59.061Z,12.47
2019-01-16T13:09:34.037Z,11.10
2019-01-16T13:12:02.271Z,12.50
2019-01-16T13:14:36.974Z,14.40
2019-01-16T13:17:11.815Z,12.23
2019-01-16T13:19:43.442Z,12.17
2019-01-16T13:22:18.709Z,13.77
2019-01-16T13:24:53.961Z,12.30
2019-01-16T13:27:23.542Z,10.23
2019-01-16T13:32:46.821Z,9.90
2019-01-16T13:35:22.224Z,12.80
2019-01-16T13:37:57.515Z,10.97
2019-01-16T13:40:24.952Z,11.12
2019-01-16T13:42:59.417Z,9.70
2019-01-16T13:45:26.286Z,13.37
2019-01-16T13:47:50.121Z,10.93
2019-01-16T13:50:25.033Z,9.43
2019-01-16T13:52:59.941Z,10.95
2019-01-16T13:55:36.854Z,6.50
2019-01-16T13:58:12.090Z,10.80
2019-01-16T14:00:41.088Z,8.63
2019-01-16T14:06:02.177Z,8.40
2019-01-16T14:08:34.719Z,6.33
2019-01-16T14:11:09.986Z,8.47
2019-01-16T14:13:45.243Z,6.58
2019-01-16T14:16:18.081Z,7.10
2019-01-16T14:18:53.225Z,7.43
2019-01-16T14:21:28.800Z,7.97
2019-01-16T14:24:07.276Z,6.63
2019-01-16T14:26:36.018Z,6.23
2019-01-16T14:31:50.629Z,5.85
2019-01-16T14:34:28.925Z,9.23
2019-01-16T14:37:09.274Z,7.47
2019-01-16T14:39:44.768Z,8.23
2019-01-16T14:42:20.193Z,7.80
2019-01-16T14:44:43.761Z,5.90
2019-01-16T14:47:19.179Z,5.47
2019-01-16T14:49:54.647Z,7.77
2019-01-16T14:52:29.149Z,6.70
2019-01-16T14:54:57.820Z,8.83
2019-01-16T14:57:32.700Z,8.63
2019-01-16T15:00:08.017Z,6.23
2019-01-16T15:02:43.065Z,9.07
2019-01-16T15:07:33.353Z,10.47
2019-01-16T15:09:59.781Z,8.30
2019-01-16T15:12:34.647Z,9.15
2019-01-16T15:17:46.237Z,8.98
2019-01-16T15:20:21.114Z,8.07
2019-01-16T15:25:13.627Z,6.40
2019-01-16T15:27:38.729Z,8.57
2019-01-16T15:32:31.249Z,7.80
2019-01-16T15:35:07.090Z,6.22
2019-01-16T15:37:41.240Z,8.40
2019-01-16T15:42:33.240Z,7.10
2019-01-16T15:45:08.690Z,8.00
2019-01-16T15:47:35.733Z,8.58
2019-01-16T15:52:57.265Z,7.03
2019-01-16T15:55:32.536Z,7.10
2019-01-16T15:58:03.286Z,6.80
2019-01-16T16:00:38.329Z,6.17
2019-01-16T16:03:05.340Z,7.07
2019-01-16T16:05:33.066Z,8.13
2019-01-16T16:08:07.978Z,6.60
2019-01-16T16:10:43.095Z,6.30
2019-01-16T16:13:24.453Z,7.00
2019-01-16T16:18:16.818Z,7.90
2019-01-16T16:20:51.818Z,6.90
2019-01-16T16:23:18.816Z,7.50
2019-01-16T16:25:53.757Z,8.43
2019-01-16T16:28:29.080Z,7.80
2019-01-16T16:31:07.015Z,9.27
2019-01-16T16:33:42.105Z,9.50
2019-01-16T16:36:19.777Z,10.03
2019-01-16T16:39:01.164Z,10.08
2019-01-16T16:41:26.881Z,9.63
2019-01-16T16:44:02.136Z,9.73
2019-01-16T16:46:31.224Z,10.90
2019-01-16T16:48:59.715Z,9.00
2019-01-16T16:51:34.544Z,8.90
2019-01-16T16:54:09.953Z,13.00
2019-01-16T16:56:45.141Z,12.03
2019-01-16T16:59:19.820Z,13.45
2019-01-16T17:01:46.104Z,11.80
2019-01-16T17:04:21.401Z,11.10
2019-01-16T17:06:51.663Z,12.70
2019-01-16T17:09:26.650Z,12.60
2019-01-16T17:12:01.844Z,16.48
2019-01-16T17:14:32.956Z,12.37
2019-01-16T17:17:07.941Z,15.00
2019-01-16T17:19:43.835Z,15.10
2019-01-16T17:22:18.639Z,16.40
2019-01-16T17:24:50.421Z,16.40
2019-01-16T17:27:21.654Z,15.50
2019-01-16T17:29:55.912Z,16.27
2019-01-16T17:41:28.355Z,16.20
2019-01-16T17:44:03.731Z,17.60
2019-01-16T17:46:38.794Z,13.60
2019-01-16T17:49:14.153Z,13.43
2019-01-16T17:51:39.199Z,12.53
2019-01-16T17:54:07.232Z,11.90
2019-01-16T17:56:41.716Z,14.80
2019-01-16T17:59:23.745Z,13.00
2019-01-16T18:01:58.806Z,11.53
2019-01-16T18:04:25.607Z,14.23
2019-01-16T18:07:03.183Z,13.10
2019-01-16T18:12:20.080Z,12.20
2019-01-16T18:14:55.305Z,9.10
2019-01-16T18:17:30.701Z,13.50
2019-01-16T18:20:06.021Z,15.00
2019-01-16T18:22:45.160Z,11.77
2019-01-16T18:28:00.847Z,12.17
2019-01-16T18:30:35.786Z,12.00
2019-01-16T18:33:13.965Z,15.40
2019-01-16T18:35:50.113Z,11.23
2019-01-16T18:38:27.789Z,11.20
2019-01-16T18:41:03.203Z,11.07
2019-01-16T18:43:38.568Z,10.10
2019-01-16T18:46:17.161Z,12.33
2019-01-16T18:51:38.341Z,11.80
2019-01-16T18:54:13.012Z,13.53
2019-01-16T18:56:54.533Z,10.77
2019-01-16T18:59:29.201Z,9.97
2019-01-16T19:02:11.701Z,7.10
2019-01-16T19:04:53.945Z,9.20
2019-01-16T19:07:36.345Z,10.55
2019-01-16T19:10:18.821Z,8.33
2019-01-16T19:13:01.659Z,9.10
2019-01-16T19:15:44.554Z,8.17
2019-01-16T19:18:27.067Z,7.70
2019-01-16T19:21:00.568Z,8.53
2019-01-16T19:23:43.486Z,7.95
2019-01-16T19:26:26.459Z,9.07
2019-01-16T19:29:08.689Z,8.60
2019-01-16T19:31:51.184Z,9.10
2019-01-16T19:34:33.401Z,9.65
2019-01-16T19:37:15.745Z,8.77
2019-01-16T19:39:58.149Z,10.50
2019-01-16T19:42:31.532Z,11.85
2019-01-16T19:48:01.215Z,9.83
2019-01-16T19:50:43.453Z,10.13
2019-01-16T19:53:25.897Z,10.95
2019-01-16T19:56:08.357Z,10.23
2019-01-16T19:58:51.132Z,10.10
2019-01-16T20:01:25.836Z,13.87
2019-01-16T20:04:01.494Z,12.68
2019-01-16T20:06:28.503Z,12.93
2019-01-16T20:08:51.037Z,15.00
2019-01-16T20:11:26.613Z,13.50
2019-01-16T20:14:01.100Z,10.33
2019-01-16T20:16:43.548Z,12.73
2019-01-16T20:19:25.999Z,14.33
2019-01-16T20:22:08.441Z,14.23
2019-01-16T20:24:50.993Z,12.65
2019-01-16T20:27:33.521Z,13.30
2019-01-16T20:30:15.931Z,13.32
2019-01-16T20:32:58.589Z,11.63
2019-01-16T20:35:40.741Z,11.03
2019-01-16T20:38:23.391Z,9.98
2019-01-16T20:41:05.752Z,13.57
2019-01-16T20:43:38.876Z,12.40
2019-01-16T20:46:21.283Z,11.47
2019-01-16T20:49:03.803Z,11.17
2019-01-16T20:54:34.150Z,11.00
2019-01-16T20:57:16.637Z,9.73
2019-01-16T20:59:59.109Z,12.57
2019-01-16T21:02:41.634Z,11.37
2019-01-16T21:05:24.276Z,9.28
2019-01-16T21:08:06.734Z,11.43
2019-01-16T21:10:40.344Z,10.90
2019-01-16T21:13:23.068Z,12.60
2019-01-16T21:16:01.062Z,10.53
2019-01-16T21:18:42.565Z,11.38
2019-01-16T21:21:11.891Z,10.37
2019-01-16T21:23:50.339Z,11.00
2019-01-16T21:29:16.538Z,12.90
2019-01-16T21:31:51.737Z,12.98
2019-01-16T21:34:26.898Z,12.07
2019-01-16T21:37:01.978Z,13.65
2019-01-16T21:39:37.144Z,13.35
2019-01-16T21:42:12.627Z,11.70
2019-01-16T21:44:47.768Z,10.30
2019-01-16T21:47:23.071Z,14.40
2019-01-16T21:49:54.215Z,13.20
2019-01-16T21:52:29.891Z,11.47
2019-01-16T21:55:05.266Z,10.40
2019-01-16T21:57:33.616Z,12.60
2019-01-16T22:00:08.845Z,12.47
2019-01-16T22:05:07.750Z,10.82
2019-01-16T22:07:40.460Z,10.73
2019-01-16T22:13:05.173Z,12.63
2019-01-16T22:15:34.540Z,10.70
2019-01-16T22:18:15.553Z,12.90
2019-01-16T22:20:50.217Z,13.10
2019-01-16T22:23:24.053Z,10.45
2019-01-16T22:26:06.944Z,15.30
2019-01-16T22:28:49.397Z,13.90
2019-01-16T22:31:34.845Z,14.03
2019-01-16T22:34:10.832Z,14.73
2019-01-16T22:36:53.211Z,12.63
2019-01-16T22:39:35.735Z,13.40
2019-01-16T22:42:18.177Z,12.03
2019-01-16T22:45:01.077Z,13.53
2019-01-16T22:47:43.502Z,10.70
2019-01-16T22:50:26.973Z,14.77
2019-01-16T22:53:09.653Z,13.90
2019-01-16T22:55:52.433Z,16.00
2019-01-16T22:58:34.893Z,11.00
2019-01-16T23:04:07.794Z,13.80
2019-01-16T23:06:50.841Z,12.03
2019-01-16T23:09:33.202Z,11.97
2019-01-16T23:12:15.788Z,16.30
2019-01-16T23:14:58.142Z,14.70
2019-01-16T23:17:40.612Z,14.43
2019-01-16T23:20:23.601Z,18.63
2019-01-16T23:23:06.084Z,14.63
2019-01-16T23:25:38.182Z,18.23
2019-01-16T23:28:20.966Z,15.70
2019-01-16T23:31:03.615Z,15.57
2019-01-16T23:33:46.607Z,14.87
2019-01-16T23:36:28.795Z,12.47
2019-01-16T23:41:50.309Z,18.63
2019-01-16T23:46:43.765Z,19.00
2019-01-16T23:49:19.044Z,12.03
2019-01-16T23:52:00.136Z,13.80
2019-01-16T23:56:58.659Z,16.07
2019-01-16T23:59:34.149Z,14.03
